Time;durP1;ratioP1;P1;durP2;ratioP2;P2;SDS_P1;SDS_P2;PMS_P1;PMS_P2;Temp;Humidity;BMP_temperature;BMP_pressure;BME280_temperature;BME280_humidity;BME280_pressure;Samples;Min_cycle;Max_cycle;Signal;HPM_P1;HPM_P2
2022/12/15 00:38:46;;;;;;;28.07;19.07;;;;;;;-2.93;58.22;98825.56;10401801;28;20237;-63
2022/12/15 00:43:48;;;;;;;28.03;19.97;;;;;;;-1.90;55.33;98777.06;10402498;28;20241;-64
2022/12/15 00:48:50;;;;;;;30.30;19.17;;;;;;;-1.33;54.49;98753.91;10401477;28;20239;-62
2022/12/15 01:20:39;;;;;;;28.97;20.10;;;;;;;-3.54;59.17;98852.84;10428480;28;20617;-62
2022/12/15 01:25:41;;;;;;;28.80;19.07;;;;;;;-3.31;58.56;98845.88;10412165;28;20598;-62
2022/12/15 01:30:43;;;;;;;27.40;19.53;;;;;;;-2.98;57.62;98832.94;10393893;28;20248;-63
2022/12/15 01:35:53;;;;;;;25.20;19.70;;;;;;;-2.24;56.45;98795.59;10429725;28;20611;-64
2022/12/15 01:40:59;;;;;;;25.57;19.03;;;;;;;-2.23;56.23;98792.03;10411285;28;20233;-64
2022/12/15 01:46:14;;;;;;;26.83;18.20;;;;;;;-2.97;58.67;98824.16;10398927;28;20235;-63
2022/12/15 01:51:19;;;;;;;30.83;20.20;;;;;;;-2.95;58.45;98817.81;10392859;28;20242;-64
2022/12/15 01:56:23;;;;;;;25.33;19.03;;;;;;;-2.83;56.93;98842.19;10399113;28;20598;-63
2022/12/15 02:01:25;;;;;;;32.23;19.63;;;;;;;-2.77;57.22;98836.50;10397531;28;20254;-63
2022/12/15 02:06:28;;;;;;;27.50;17.17;;;;;;;-2.91;57.25;98855.09;10432478;28;20246;-62
2022/12/15 02:11:46;;;;;;;24.60;18.33;;;;;;;-2.95;58.17;98841.38;10404024;28;20243;-63
2022/12/15 02:16:50;;;;;;;27.37;19.17;;;;;;;-3.37;58.68;98864.66;10403154;28;20228;-63
2022/12/15 02:22:28;;;;;;;27.33;18.63;;;;;;;-3.48;58.28;98867.28;10437555;28;20242;-64
2022/12/15 02:27:29;;;;;;;29.70;20.67;;;;;;;-3.26;58.61;98879.56;10428846;28;20293;-64
2022/12/15 02:32:38;;;;;;;26.00;19.30;;;;;;;-3.62;58.87;98899.72;10420349;28;20598;-63
2022/12/15 02:37:40;;;;;;;27.47;19.23;;;;;;;-2.83;58.20;98841.38;10374101;28;20270;-64
2022/12/15 02:42:55;;;;;;;27.23;19.10;;;;;;;-2.06;56.48;98803.75;10398091;28;20248;-64
2022/12/15 02:48:02;;;;;;;27.23;19.07;;;;;;;-2.73;57.43;98837.06;10396891;28;20251;-63
2022/12/15 02:53:19;;;;;;;26.20;19.53;;;;;;;-3.07;58.29;98858.03;10405870;28;20235;-64
2022/12/15 02:58:46;;;;;;;26.00;18.40;;;;;;;-3.24;57.58;98880.25;10413945;28;20236;-63
2022/12/15 03:03:49;;;;;;;27.60;19.63;;;;;;;-3.13;58.67;98872.44;10408676;28;20239;-63
2022/12/15 03:08:51;;;;;;;29.13;18.77;;;;;;;-3.40;58.40;98896.31;10429305;28;20232;-64
2022/12/15 03:13:53;;;;;;;25.67;17.60;;;;;;;-3.24;58.55;98896.78;10437832;28;20605;-63
2022/12/15 03:18:54;;;;;;;28.63;19.10;;;;;;;-3.11;59.02;98864.47;10437792;28;20314;-63
2022/12/15 03:23:56;;;;;;;25.50;18.33;;;;;;;-3.19;58.73;98870.28;10430952;28;20242;-63
2022/12/15 03:28:58;;;;;;;29.13;20.43;;;;;;;-3.86;60.55;98878.81;10436302;28;20243;-63
2022/12/15 03:33:59;;;;;;;25.87;19.37;;;;;;;-3.76;60.28;98874.56;10427271;28;20239;-63
2022/12/15 03:39:02;;;;;;;27.13;20.03;;;;;;;-3.01;58.83;98843.66;10408410;28;20286;-63
2022/12/15 03:44:04;;;;;;;28.57;20.00;;;;;;;-4.54;61.37;98915.88;10427962;28;20804;-63
2022/12/15 03:49:06;;;;;;;30.60;20.13;;;;;;;-3.12;59.04;98870.63;10428853;28;20245;-63
2022/12/15 03:54:07;;;;;;;32.37;18.33;;;;;;;-3.95;59.00;98921.31;10437984;28;20244;-63
2022/12/15 03:59:09;;;;;;;28.57;19.33;;;;;;;-3.48;58.74;98878.56;10425575;28;20255;-64
2022/12/15 04:04:11;;;;;;;27.30;18.90;;;;;;;-3.84;59.82;98887.38;10419298;28;20236;-63
2022/12/15 04:09:12;;;;;;;26.83;18.23;;;;;;;-3.96;59.69;98899.56;10436522;28;20232;-63
2022/12/15 04:14:14;;;;;;;25.80;19.17;;;;;;;-2.90;57.81;98836.63;10444196;28;20274;-63
2022/12/15 05:31:59;;;;;;;27.73;20.60;;;;;;;-4.70;64.05;98847.44;10452685;28;20878;-62
2022/12/15 05:37:03;;;;;;;33.13;22.40;;;;;;;-4.74;64.06;98844.19;10496661;28;20235;-62
2022/12/15 05:42:04;;;;;;;35.10;22.27;;;;;;;-3.98;62.31;98810.81;10494926;28;20240;-63
2022/12/15 05:47:08;;;;;;;33.37;20.80;;;;;;;-4.37;62.67;98835.50;10472298;28;20332;-63
2022/12/15 05:52:09;;;;;;;34.37;21.03;;;;;;;-4.38;63.36;98833.81;10464896;28;20723;-63
2022/12/15 05:57:11;;;;;;;34.63;21.73;;;;;;;-3.98;62.65;98817.81;10480584;28;20640;-63
2022/12/15 06:02:12;;;;;;;33.80;22.13;;;;;;;-4.83;64.14;98881.38;10492025;28;20238;-62
2022/12/15 06:07:14;;;;;;;34.53;22.30;;;;;;;-3.50;62.19;98770.59;10469019;28;20325;-63
2022/12/15 06:12:16;;;;;;;31.90;21.47;;;;;;;-4.31;63.04;98835.06;10443088;28;20660;-63
2022/12/15 06:17:18;;;;;;;33.10;22.83;;;;;;;-4.58;63.26;98869.22;10418370;28;20224;-62
2022/12/15 06:22:19;;;;;;;33.83;22.47;;;;;;;-4.40;63.49;98838.31;10480900;28;20250;-62
2022/12/15 06:27:21;;;;;;;34.57;23.33;;;;;;;-4.74;63.56;98857.22;10483016;28;20275;-63
2022/12/15 06:32:22;;;;;;;30.33;21.00;;;;;;;-4.52;63.38;98860.94;10459420;28;20232;-63
2022/12/15 06:37:24;;;;;;;30.70;21.60;;;;;;;-4.75;63.28;98888.66;10457954;28;20227;-61
2022/12/15 06:42:26;;;;;;;35.37;22.30;;;;;;;-4.90;64.72;98878.38;10477655;28;20242;-62
2022/12/15 06:47:27;;;;;;;30.90;21.90;;;;;;;-4.96;64.17;98894.44;10474723;28;20239;-63
2022/12/15 06:52:29;;;;;;;33.00;22.13;;;;;;;-5.03;63.67;98898.44;10477796;28;20956;-62
2022/12/15 06:57:31;;;;;;;31.17;21.90;;;;;;;-4.07;63.03;98798.44;10471432;28;21047;-61
2022/12/15 07:02:33;;;;;;;29.97;22.63;;;;;;;-5.34;64.64;98886.63;10452808;28;20845;-63
2022/12/15 07:07:35;;;;;;;35.60;21.53;;;;;;;-4.63;63.71;98833.00;10473471;28;20658;-62
2022/12/15 07:12:36;;;;;;;31.87;21.93;;;;;;;-4.05;62.75;98799.16;10460774;28;20731;-62
2022/12/15 07:17:38;;;;;;;39.60;23.70;;;;;;;-4.85;64.19;98827.59;10466311;28;20319;-61
2022/12/15 07:22:40;;;;;;;32.70;21.13;;;;;;;-4.46;63.97;98808.28;10474166;28;20247;-61
2022/12/15 07:27:41;;;;;;;36.47;22.47;;;;;;;-4.52;63.37;98825.19;10475439;28;20676;-62
2022/12/15 07:32:43;;;;;;;34.60;22.00;;;;;;;-4.43;63.13;98815.03;10451669;28;20269;-63
2022/12/15 07:37:50;;;;;;;37.20;22.90;;;;;;;-3.93;61.94;98794.78;10458806;28;20250;-63
2022/12/15 07:42:52;;;;;;;36.97;24.47;;;;;;;-4.91;63.77;98879.31;10482402;28;20261;-63
2022/12/15 07:47:54;;;;;;;35.33;23.43;;;;;;;-4.10;62.07;98840.47;10468123;28;20238;-62
2022/12/15 07:52:55;;;;;;;33.17;23.27;;;;;;;-4.46;62.77;98862.28;10481182;28;20238;-63
2022/12/15 07:57:57;;;;;;;36.07;22.93;;;;;;;-4.47;62.49;98868.44;10469849;28;20234;-62
2022/12/15 08:03:01;;;;;;;31.87;22.07;;;;;;;-3.92;61.17;98853.16;10462121;28;20248;-62
2022/12/15 08:08:03;;;;;;;34.27;22.07;;;;;;;-4.18;61.07;98887.22;10463821;28;20250;-63
2022/12/15 08:13:05;;;;;;;32.57;21.07;;;;;;;-4.92;62.09;98924.63;10454829;28;20230;-62
2022/12/15 08:18:08;;;;;;;32.03;23.30;;;;;;;-5.32;63.62;98911.69;10465387;28;20250;-63
2022/12/15 08:23:09;;;;;;;34.37;23.13;;;;;;;-4.81;62.06;98908.22;10456275;28;20253;-62
2022/12/15 08:28:11;;;;;;;33.33;21.40;;;;;;;-4.01;60.98;98872.94;10459289;28;20238;-64
2022/12/15 08:33:13;;;;;;;33.90;22.63;;;;;;;-4.65;61.95;98922.81;10459825;28;20303;-63
2022/12/15 08:38:15;;;;;;;31.93;21.67;;;;;;;-4.24;61.20;98905.97;10468262;28;20283;-61
2022/12/15 08:43:16;;;;;;;29.77;21.57;;;;;;;-4.54;60.39;98931.53;10463703;28;20235;-63
2022/12/15 08:48:18;;;;;;;34.93;22.20;;;;;;;-4.39;60.16;98934.03;10479600;28;20237;-61
2022/12/15 08:53:19;;;;;;;30.33;20.17;;;;;;;-4.68;61.54;98923.88;10462542;28;20286;-62
2022/12/15 08:58:32;;;;;;;34.13;22.63;;;;;;;-5.00;61.25;98945.19;10463026;28;20786;-65
2022/12/15 09:03:35;;;;;;;33.17;21.30;;;;;;;-4.62;61.61;98910.34;10468854;28;20322;-63
2022/12/15 09:08:37;;;;;;;30.50;22.00;;;;;;;-4.98;61.85;98938.09;10464110;28;20253;-62
2022/12/15 09:13:39;;;;;;;31.33;22.57;;;;;;;-4.92;61.34;98942.91;10427796;28;20664;-64
2022/12/15 09:18:42;;;;;;;34.87;22.40;;;;;;;-4.23;60.57;98908.50;10443071;28;20270;-64
2022/12/15 09:23:51;;;;;;;33.20;22.07;;;;;;;-5.27;61.40;98980.03;10458068;28;20290;-63
2022/12/15 09:28:56;;;;;;;32.93;23.00;;;;;;;-4.63;60.90;98944.41;10451956;28;20242;-64
2022/12/15 09:33:59;;;;;;;34.00;22.80;;;;;;;-4.80;60.65;98941.22;10453529;28;20345;-63
2022/12/15 09:39:01;;;;;;;33.07;22.40;;;;;;;-4.41;59.88;98928.91;10466253;28;20656;-63
2022/12/15 09:44:13;;;;;;;32.43;22.13;;;;;;;-3.47;59.08;98871.53;10415456;28;20704;-64
2022/12/15 09:49:27;;;;;;;32.03;21.90;;;;;;;-3.17;58.23;98867.53;10436301;28;20295;-63
2022/12/15 09:54:32;;;;;;;62.73;38.00;;;;;;;-3.39;58.62;98870.97;10464466;28;20233;-63
2022/12/15 09:59:56;;;;;;;38.33;24.90;;;;;;;-3.70;57.48;98923.81;10467977;28;20318;-64
2022/12/15 10:05:19;;;;;;;31.70;22.03;;;;;;;-3.88;58.84;98917.31;10413315;28;20225;-64
2022/12/15 10:10:20;;;;;;;33.33;23.03;;;;;;;-3.93;58.96;98933.31;10444679;28;20239;-64
2022/12/15 10:15:26;;;;;;;35.53;23.50;;;;;;;-4.18;60.03;98935.13;10447436;28;20246;-63
2022/12/15 10:20:30;;;;;;;36.97;26.17;;;;;;;-4.60;60.81;98968.56;10427427;28;20302;-63
2022/12/15 10:25:32;;;;;;;33.00;22.40;;;;;;;-3.93;59.88;98938.56;10475097;28;20250;-63
2022/12/15 10:30:36;;;;;;;35.90;22.60;;;;;;;-3.84;59.32;98945.75;10459705;28;20235;-62
2022/12/15 10:35:39;;;;;;;31.87;22.27;;;;;;;-3.59;59.86;98896.84;10453875;28;20303;-63
2022/12/15 10:40:54;;;;;;;33.97;23.90;;;;;;;-3.95;59.30;98924.78;10455539;28;20620;-63
2022/12/15 10:46:00;;;;;;;34.80;22.63;;;;;;;-3.90;60.10;98893.06;10473128;28;20245;-63
2022/12/15 10:51:12;;;;;;;32.93;23.47;;;;;;;-3.21;59.07;98848.63;10476585;28;20257;-63
2022/12/15 10:56:25;;;;;;;32.57;22.20;;;;;;;-3.24;58.58;98862.78;10468475;28;20262;-63
2022/12/15 11:06:20;;;;;;;32.57;22.63;;;;;;;-5.30;63.41;98937.66;10553865;27;20815;-62
2022/12/15 11:16:56;;;;;;;31.93;21.97;;;;;;;-4.36;62.20;98871.94;10406744;28;20717;-63
2022/12/15 11:22:07;;;;;;;29.23;20.27;;;;;;;-4.52;61.13;98903.53;10401853;28;20236;-62
2022/12/15 11:27:18;;;;;;;32.03;22.53;;;;;;;-4.10;61.27;98871.84;10414145;28;20237;-63
2022/12/15 11:32:24;;;;;;;30.03;21.70;;;;;;;-3.62;59.67;98856.06;10414497;28;20682;-62
2022/12/15 11:37:37;;;;;;;30.57;20.07;;;;;;;-4.11;60.27;98875.41;10423645;28;20708;-63
2022/12/15 11:42:44;;;;;;;33.20;21.43;;;;;;;-3.17;59.49;98771.53;10420453;28;20228;-63
2022/12/15 11:47:57;;;;;;;30.23;21.60;;;;;;;-4.88;61.34;98895.72;10409396;28;20240;-62
2022/12/15 11:53:21;;;;;;;36.13;23.37;;;;;;;-4.35;61.55;98834.44;10407452;28;20224;-62
2022/12/15 11:58:35;;;;;;;33.73;23.67;;;;;;;-4.63;62.25;98838.22;10398496;28;20236;-62
2022/12/15 12:04:04;;;;;;;56.03;34.73;;;;;;;-4.64;61.54;98844.38;10400575;28;20263;-62
2022/12/15 12:09:38;;;;;;;32.10;22.17;;;;;;;-4.17;61.31;98797.47;10452237;28;20238;-62
2022/12/15 12:15:06;;;;;;;34.60;23.37;;;;;;;-4.21;61.20;98789.03;10422218;28;20243;-62
2022/12/15 12:20:16;;;;;;;50.93;30.37;;;;;;;-4.39;60.84;98813.88;10382391;28;20241;-61
2022/12/15 12:25:21;;;;;;;40.37;26.53;;;;;;;-3.58;59.96;98746.81;10377690;28;20328;-63
2022/12/15 12:30:28;;;;;;;73.30;42.73;;;;;;;-3.79;59.58;98763.22;10373330;28;20247;-62
2022/12/15 12:35:39;;;;;;;46.37;29.30;;;;;;;-4.02;59.28;98787.66;10400417;28;20250;-64
2022/12/15 12:41:10;;;;;;;58.73;39.07;;;;;;;-2.97;58.59;98708.97;10415003;28;20319;-62
2022/12/15 12:46:39;;;;;;;124.30;77.47;;;;;;;-3.52;58.79;98759.44;10425737;28;20943;-63
2022/12/15 12:51:48;;;;;;;65.60;41.97;;;;;;;-3.82;59.44;98767.84;10433387;28;20236;-62
2022/12/15 12:56:49;;;;;;;58.00;38.37;;;;;;;-2.59;57.35;98702.38;10420374;28;20237;-62
2022/12/15 13:01:53;;;;;;;111.90;65.77;;;;;;;-3.50;58.81;98743.63;10405681;28;20241;-63
2022/12/15 13:06:58;;;;;;;51.17;33.77;;;;;;;-3.55;58.71;98730.03;10420181;28;20983;-62
2022/12/15 13:12:00;;;;;;;32.23;22.33;;;;;;;-3.83;59.96;98746.09;10420611;28;20395;-62
2022/12/15 13:17:29;;;;;;;29.20;20.27;;;;;;;-3.26;58.28;98706.84;10404470;28;20330;-63
2022/12/15 13:22:38;;;;;;;27.50;20.73;;;;;;;-3.67;58.97;98727.44;10408281;28;20227;-63
2022/12/15 13:27:41;;;;;;;31.60;21.67;;;;;;;-3.90;59.24;98744.06;10417670;28;20240;-63
2022/12/15 13:32:50;;;;;;;29.87;22.40;;;;;;;-3.50;58.97;98712.25;10410333;28;20224;-62
2022/12/15 13:37:54;;;;;;;29.00;21.90;;;;;;;-3.84;58.75;98747.06;10423170;28;20246;-62
2022/12/15 13:42:58;;;;;;;31.37;21.03;;;;;;;-4.32;59.79;98768.06;10407280;28;20248;-61
2022/12/15 13:48:00;;;;;;;33.37;23.33;;;;;;;-3.87;59.24;98741.22;10404162;28;20247;-61
2022/12/15 13:53:03;;;;;;;37.77;24.27;;;;;;;-4.47;59.88;98784.88;10404008;28;20235;-61
2022/12/15 13:58:27;;;;;;;37.00;24.00;;;;;;;-4.40;60.63;98754.75;10405274;28;20330;-62
2022/12/15 14:03:28;;;;;;;33.63;24.37;;;;;;;-4.92;61.62;98764.56;10407574;28;20231;-63
2022/12/15 14:08:31;;;;;;;38.33;23.43;;;;;;;-5.76;62.92;98805.16;10413779;28;20239;-63
2022/12/15 14:13:34;;;;;;;44.90;30.40;;;;;;;-5.71;62.20;98811.75;10408972;28;20250;-66
2022/12/15 14:18:40;;;;;;;47.60;27.37;;;;;;;-4.39;60.50;98740.75;10421432;28;20292;-63
2022/12/15 14:23:44;;;;;;;40.50;24.63;;;;;;;-5.03;61.36;98778.41;10428217;28;20242;-64
2022/12/15 14:29:06;;;;;;;42.80;24.77;;;;;;;-5.14;61.87;98787.00;10430717;28;20285;-64
2022/12/15 14:34:14;;;;;;;40.97;26.23;;;;;;;-4.43;61.06;98723.63;10426573;28;20230;-64
2022/12/15 14:39:32;;;;;;;47.17;28.33;;;;;;;-4.64;61.26;98758.22;10418315;28;20319;-64
2022/12/15 14:44:43;;;;;;;40.93;26.00;;;;;;;-5.18;61.77;98779.47;10431176;28;20232;-64
2022/12/15 14:49:50;;;;;;;56.83;31.93;;;;;;;-4.84;61.33;98766.66;10427944;28;20328;-64
2022/12/15 14:55:02;;;;;;;41.70;26.50;;;;;;;-5.13;61.99;98787.81;10432461;28;20242;-63
2022/12/15 15:00:28;;;;;;;37.90;25.80;;;;;;;-6.08;63.00;98829.84;10425780;28;20241;-63
2022/12/15 15:05:32;;;;;;;45.03;27.97;;;;;;;-5.18;62.30;98769.06;10422261;28;20719;-63
2022/12/15 15:10:34;;;;;;;45.87;25.87;;;;;;;-6.04;63.38;98814.84;10396819;28;20943;-64
2022/12/15 15:15:37;;;;;;;43.10;26.67;;;;;;;-5.91;63.67;98776.63;10387454;28;20675;-64
2022/12/15 15:20:38;;;;;;;37.60;24.67;;;;;;;-5.93;62.95;98809.75;10368157;28;20232;-63
2022/12/15 15:26:08;;;;;;;34.07;23.83;;;;;;;-5.33;61.99;98766.56;10364488;28;20587;-63
2022/12/15 15:31:29;;;;;;;41.90;25.93;;;;;;;-5.51;62.06;98760.88;10361591;28;20855;-63
2022/12/15 15:36:40;;;;;;;38.27;23.90;;;;;;;-5.85;63.64;98754.50;10364847;28;20245;-63
2022/12/15 15:41:42;;;;;;;43.97;27.13;;;;;;;-5.33;63.33;98705.75;10389347;28;20236;-64
2022/12/15 15:46:49;;;;;;;38.97;25.30;;;;;;;-5.92;63.46;98785.38;10386781;28;20248;-64
2022/12/15 15:51:54;;;;;;;35.63;22.70;;;;;;;-6.69;63.43;98876.28;10391127;28;20254;-63
2022/12/15 15:56:56;;;;;;;37.77;25.50;;;;;;;-6.00;63.71;98776.41;10390704;28;20244;-64
2022/12/15 16:01:58;;;;;;;39.60;23.90;;;;;;;-5.99;63.58;98786.72;10383247;28;20237;-64
2022/12/15 16:07:00;;;;;;;42.10;29.30;;;;;;;-5.05;62.36;98716.84;10402978;28;20238;-65
2022/12/15 16:12:02;;;;;;;38.27;25.43;;;;;;;-5.43;62.73;98755.09;10394586;28;20228;-63
2022/12/15 16:17:08;;;;;;;38.10;24.23;;;;;;;-5.49;63.08;98732.09;10395822;28;20341;-65
2022/12/15 16:22:16;;;;;;;35.80;24.90;;;;;;;-5.32;62.57;98736.13;10382066;28;20237;-65
2022/12/15 16:27:18;;;;;;;42.23;25.23;;;;;;;-6.07;63.59;98800.25;10395683;28;20238;-66
2022/12/15 16:32:19;;;;;;;38.37;22.80;;;;;;;-5.55;63.97;98716.88;10398393;28;20231;-64
2022/12/15 16:37:26;;;;;;;37.17;24.07;;;;;;;-6.19;63.85;98803.66;10403882;28;20240;-64
2022/12/15 16:42:27;;;;;;;37.27;24.13;;;;;;;-5.86;63.66;98750.25;10391448;28;20296;-67
2022/12/15 16:47:29;;;;;;;38.50;24.67;;;;;;;-5.35;62.50;98723.28;10388988;28;20668;-65
2022/12/15 16:52:31;;;;;;;48.37;27.47;;;;;;;-5.40;62.22;98747.06;10384742;28;20250;-66
2022/12/15 16:57:32;;;;;;;39.77;24.63;;;;;;;-6.18;63.16;98810.56;10378082;28;20280;-65
2022/12/15 17:02:36;;;;;;;37.43;25.93;;;;;;;-5.51;63.03;98741.78;10364484;28;20246;-66
2022/12/15 17:07:38;;;;;;;38.77;25.10;;;;;;;-5.76;63.66;98751.31;10361391;28;20662;-66
2022/12/15 17:12:40;;;;;;;40.60;23.47;;;;;;;-5.73;63.54;98735.47;10388217;28;21077;-67
2022/12/15 17:17:41;;;;;;;41.37;24.60;;;;;;;-5.80;63.13;98733.38;10395867;28;20711;-64
2022/12/15 17:22:46;;;;;;;45.43;27.50;;;;;;;-5.84;63.12;98730.97;10381967;28;20239;-64
2022/12/15 17:27:50;;;;;;;37.87;24.77;;;;;;;-5.50;62.67;98706.94;10385222;28;20341;-64
2022/12/15 17:32:52;;;;;;;38.57;24.13;;;;;;;-5.19;62.75;98658.66;10383351;28;20676;-64
2022/12/15 17:37:54;;;;;;;36.80;23.97;;;;;;;-5.65;62.52;98719.28;10407037;28;20796;-65
2022/12/15 17:42:55;;;;;;;39.67;25.23;;;;;;;-5.48;62.44;98685.06;10427464;28;20235;-66
2022/12/15 17:47:57;;;;;;;41.37;23.03;;;;;;;-5.24;61.22;98699.03;10420300;28;20596;-66
2022/12/15 17:53:00;;;;;;;43.37;25.53;;;;;;;-5.06;60.93;98686.47;10417804;28;20737;-67
2022/12/15 17:58:05;;;;;;;34.80;20.60;;;;;;;-5.16;61.36;98686.28;10418734;28;20328;-66
2022/12/15 18:03:08;;;;;;;38.73;25.30;;;;;;;-4.60;60.23;98649.16;10414303;28;20256;-66
2022/12/15 18:08:21;;;;;;;34.60;22.43;;;;;;;-4.41;59.64;98648.63;10423433;28;20240;-64
2022/12/15 18:13:33;;;;;;;38.60;24.40;;;;;;;-4.50;59.92;98650.13;10411912;28;20224;-64
2022/12/15 18:18:36;;;;;;;34.93;21.83;;;;;;;-4.84;60.40;98681.34;10418104;28;20265;-63
2022/12/15 18:23:38;;;;;;;43.23;25.00;;;;;;;-4.07;59.58;98625.97;10408553;28;20232;-63
2022/12/15 18:28:40;;;;;;;34.73;23.57;;;;;;;-4.29;60.03;98645.06;10409082;28;20235;-64
2022/12/15 18:33:43;;;;;;;47.43;27.87;;;;;;;-4.22;59.56;98627.97;10404519;28;20736;-65
2022/12/15 18:38:45;;;;;;;66.67;34.47;;;;;;;-5.32;60.93;98710.88;10424143;28;20270;-64
2022/12/15 18:43:57;;;;;;;33.00;22.37;;;;;;;-4.30;60.02;98635.56;10426499;28;20235;-63
2022/12/15 18:48:59;;;;;;;45.37;24.57;;;;;;;-4.04;59.05;98630.13;10424843;28;20265;-65
2022/12/15 18:54:00;;;;;;;36.57;23.47;;;;;;;-4.44;60.08;98647.06;10424531;28;20650;-65
2022/12/15 18:59:02;;;;;;;61.60;31.27;;;;;;;-5.08;60.19;98712.66;10419205;28;20232;-66
2022/12/15 19:04:04;;;;;;;37.47;23.13;;;;;;;-4.24;60.08;98647.34;10414300;28;20230;-68
2022/12/15 19:09:14;;;;;;;38.47;24.77;;;;;;;-4.28;59.58;98653.72;10414883;28;20230;-68
2022/12/15 19:14:39;;;;;;;32.27;22.53;;;;;;;-4.48;59.36;98691.78;10423712;28;20231;-67
2022/12/15 19:24:58;;;;;;;30.57;20.53;;;;;;;-4.83;60.23;98701.28;10399443;28;20723;-67
2022/12/15 19:30:00;;;;;;;29.00;19.60;;;;;;;-4.83;60.70;98693.47;10405513;28;20266;-67
2022/12/15 19:35:03;;;;;;;30.50;19.60;;;;;;;-4.86;60.14;98698.06;10402015;28;20916;-66
2022/12/15 19:40:05;;;;;;;29.60;19.87;;;;;;;-4.99;61.25;98695.50;10395431;28;20240;-69
2022/12/15 19:45:18;;;;;;;30.03;19.77;;;;;;;-3.99;59.04;98630.59;10400093;28;20610;-67
2022/12/15 19:50:35;;;;;;;34.77;19.67;;;;;;;-4.59;59.65;98676.94;10401127;28;20816;-66
2022/12/15 19:55:37;;;;;;;31.20;19.97;;;;;;;-4.87;60.43;98701.63;10393923;28;20421;-68
2022/12/15 20:00:39;;;;;;;30.33;18.37;;;;;;;-3.80;58.17;98649.13;10402658;28;20261;-67
2022/12/15 20:05:41;;;;;;;31.20;18.80;;;;;;;-5.19;60.44;98738.69;10402346;28;20249;-69
2022/12/15 20:10:46;;;;;;;31.07;19.77;;;;;;;-3.90;59.05;98645.56;10401518;28;20235;-66
2022/12/15 20:15:48;;;;;;;29.23;19.43;;;;;;;-4.77;60.54;98710.44;10402757;28;20242;-66
2022/12/15 20:20:50;;;;;;;31.20;18.73;;;;;;;-5.54;61.71;98761.09;10403239;28;20232;-66
2022/12/15 20:25:55;;;;;;;29.47;18.97;;;;;;;-5.68;62.29;98758.56;10402624;28;21096;-65
2022/12/15 20:30:57;;;;;;;31.43;17.60;;;;;;;-5.06;61.94;98695.13;10400583;28;20242;-66
2022/12/15 20:35:59;;;;;;;29.30;18.63;;;;;;;-4.91;60.61;98724.50;10401955;28;20276;-66
2022/12/15 20:41:02;;;;;;;27.23;18.37;;;;;;;-4.48;60.76;98673.50;10403575;28;20308;-68
2022/12/15 20:46:07;;;;;;;28.77;17.40;;;;;;;-4.37;59.74;98671.75;10402468;28;20629;-68
2022/12/15 20:51:19;;;;;;;25.43;18.33;;;;;;;-4.34;59.89;98666.31;10401079;28;20620;-66
2022/12/15 20:56:22;;;;;;;30.70;19.00;;;;;;;-4.22;58.84;98688.06;10401092;28;20790;-69
2022/12/15 21:01:26;;;;;;;27.90;17.93;;;;;;;-3.39;57.77;98638.97;10395278;28;20239;-68
2022/12/15 21:06:29;;;;;;;28.47;17.37;;;;;;;-3.29;57.44;98649.53;10401660;28;20244;-67
2022/12/15 21:11:31;;;;;;;26.50;17.87;;;;;;;-4.67;59.80;98726.28;10400923;28;20479;-66
2022/12/15 21:16:33;;;;;;;26.73;16.47;;;;;;;-4.84;60.41;98751.00;10399644;28;20238;-66
2022/12/15 21:21:39;;;;;;;30.23;18.63;;;;;;;-4.17;59.31;98714.66;10402506;28;20961;-65
2022/12/15 21:26:41;;;;;;;26.03;16.77;;;;;;;-4.30;59.49;98713.91;10399473;28;20239;-66
2022/12/15 21:31:43;;;;;;;27.30;18.43;;;;;;;-4.22;59.06;98706.34;10400543;28;20246;-67
2022/12/15 21:36:49;;;;;;;28.10;18.20;;;;;;;-4.81;59.16;98769.03;10400432;28;20244;-66
2022/12/15 21:41:52;;;;;;;25.37;17.73;;;;;;;-4.70;59.39;98750.84;10400000;28;20269;-68
2022/12/15 21:46:55;;;;;;;27.80;17.37;;;;;;;-4.74;60.11;98746.78;10398679;28;20254;-67
2022/12/15 21:51:59;;;;;;;25.97;18.00;;;;;;;-4.80;60.06;98752.41;10399718;28;20239;-64
2022/12/15 21:57:04;;;;;;;26.60;18.30;;;;;;;-5.15;60.21;98787.09;10397408;28;20307;-64
2022/12/15 22:02:32;;;;;;;24.00;17.47;;;;;;;-5.05;60.12;98787.28;10392071;28;20286;-63
2022/12/15 22:07:34;;;;;;;28.30;17.80;;;;;;;-5.22;60.11;98801.50;10393902;28;20248;-63
2022/12/15 22:12:37;;;;;;;25.27;17.50;;;;;;;-4.78;59.86;98779.28;10399797;28;20296;-64
2022/12/15 22:17:38;;;;;;;30.53;18.60;;;;;;;-4.60;59.43;98762.28;10398993;28;20247;-64
2022/12/15 22:22:40;;;;;;;25.40;15.73;;;;;;;-3.54;57.59;98705.56;10398397;28;20231;-64
2022/12/15 22:27:43;;;;;;;27.00;17.87;;;;;;;-4.85;59.39;98788.47;10398218;28;20231;-64
2022/12/15 22:32:45;;;;;;;22.47;15.70;;;;;;;-4.45;59.03;98759.47;10397173;28;20244;-64
2022/12/15 22:37:52;;;;;;;26.93;17.43;;;;;;;-3.92;57.98;98727.69;10399395;28;20910;-64
2022/12/15 22:42:57;;;;;;;24.70;16.40;;;;;;;-3.62;57.63;98693.09;10397909;28;20251;-64
2022/12/15 22:47:59;;;;;;;24.97;16.77;;;;;;;-2.99;56.29;98690.75;10399832;28;20239;-64
2022/12/15 22:53:00;;;;;;;26.33;17.53;;;;;;;-4.16;57.98;98765.16;10399611;28;20611;-64
2022/12/15 22:58:08;;;;;;;27.67;17.37;;;;;;;-4.28;58.35;98766.06;10393906;28;20243;-65
2022/12/15 23:03:10;;;;;;;26.33;16.97;;;;;;;-3.85;58.20;98727.06;10387398;28;20340;-63
2022/12/15 23:08:12;;;;;;;22.33;15.47;;;;;;;-3.97;58.12;98754.97;10377821;28;20234;-66
2022/12/15 23:13:14;;;;;;;23.13;16.67;;;;;;;-3.43;56.64;98724.69;10396934;28;20232;-63
2022/12/15 23:18:16;;;;;;;22.43;15.10;;;;;;;-3.27;56.19;98726.09;10398723;28;20277;-64
2022/12/15 23:23:17;;;;;;;26.47;16.47;;;;;;;-3.61;57.45;98736.59;10397476;28;20721;-64
2022/12/15 23:28:19;;;;;;;22.87;15.97;;;;;;;-3.60;56.58;98749.56;10397728;28;20228;-66
2022/12/15 23:33:23;;;;;;;21.73;15.00;;;;;;;-3.37;56.10;98738.25;10396332;28;20701;-64
2022/12/15 23:38:25;;;;;;;19.67;15.10;;;;;;;-3.74;56.44;98767.25;10397550;28;20331;-63
2022/12/15 23:43:30;;;;;;;24.37;15.80;;;;;;;-3.87;57.51;98762.13;10397970;28;20240;-63
2022/12/15 23:48:36;;;;;;;21.33;15.20;;;;;;;-3.64;56.27;98776.06;10397279;28;20240;-64
2022/12/15 23:53:39;;;;;;;21.63;14.67;;;;;;;-4.04;56.75;98800.81;10397696;28;20611;-64
2022/12/15 23:58:42;;;;;;;20.87;13.77;;;;;;;-2.94;55.59;98724.44;10389921;28;20303;-66
